sensor_id;sensor_type;location;lat;lon;timestamp;P1;durP1;ratioP1;P2;durP2;ratioP2
8281;SDS011;25606;42.686;23.136;2022-07-01T00:02:24;5.37;;;3.70;;
8281;SDS011;25606;42.686;23.136;2022-07-01T00:04:51;6.53;;;4.00;;
8281;SDS011;25606;42.686;23.136;2022-07-01T00:07:19;4.70;;;3.90;;
8281;SDS011;25606;42.686;23.136;2022-07-01T00:09:46;5.87;;;3.63;;
8281;SDS011;25606;42.686;23.136;2022-07-01T00:12:13;5.83;;;4.00;;
8281;SDS011;25606;42.686;23.136;2022-07-01T00:14:41;5.37;;;4.27;;
8281;SDS011;25606;42.686;23.136;2022-07-01T00:17:09;4.53;;;3.67;;
8281;SDS011;25606;42.686;23.136;2022-07-01T00:19:36;6.97;;;4.23;;
8281;SDS011;25606;42.686;23.136;2022-07-01T00:22:03;4.50;;;4.10;;
8281;SDS011;25606;42.686;23.136;2022-07-01T00:24:30;4.00;;;3.70;;
8281;SDS011;25606;42.686;23.136;2022-07-01T00:26:57;4.80;;;4.00;;
8281;SDS011;25606;42.686;23.136;2022-07-01T00:29:25;4.10;;;3.80;;
8281;SDS011;25606;42.686;23.136;2022-07-01T00:31:53;4.20;;;3.77;;
8281;SDS011;25606;42.686;23.136;2022-07-01T00:34:20;4.83;;;3.43;;
8281;SDS011;25606;42.686;23.136;2022-07-01T00:36:48;5.17;;;4.77;;
8281;SDS011;25606;42.686;23.136;2022-07-01T00:39:15;4.83;;;4.27;;
8281;SDS011;25606;42.686;23.136;2022-07-01T00:41:42;4.43;;;4.00;;
8281;SDS011;25606;42.686;23.136;2022-07-01T00:44:15;5.33;;;4.00;;
8281;SDS011;25606;42.686;23.136;2022-07-01T00:46:43;4.30;;;3.90;;
8281;SDS011;25606;42.686;23.136;2022-07-01T00:49:11;4.47;;;4.00;;
8281;SDS011;25606;42.686;23.136;2022-07-01T00:51:39;6.27;;;4.23;;
8281;SDS011;25606;42.686;23.136;2022-07-01T00:54:06;5.27;;;4.13;;
8281;SDS011;25606;42.686;23.136;2022-07-01T00:56:33;4.70;;;4.17;;
8281;SDS011;25606;42.686;23.136;2022-07-01T00:59:01;4.73;;;4.30;;
8281;SDS011;25606;42.686;23.136;2022-07-01T01:01:28;4.80;;;4.00;;
8281;SDS011;25606;42.686;23.136;2022-07-01T01:03:55;5.97;;;4.50;;
8281;SDS011;25606;42.686;23.136;2022-07-01T01:06:24;5.03;;;4.23;;
8281;SDS011;25606;42.686;23.136;2022-07-01T01:08:51;6.70;;;4.17;;
8281;SDS011;25606;42.686;23.136;2022-07-01T01:11:19;7.03;;;4.03;;
8281;SDS011;25606;42.686;23.136;2022-07-01T01:13:46;4.23;;;3.83;;
8281;SDS011;25606;42.686;23.136;2022-07-01T01:16:17;5.57;;;4.10;;
8281;SDS011;25606;42.686;23.136;2022-07-01T01:18:45;4.37;;;3.97;;
8281;SDS011;25606;42.686;23.136;2022-07-01T01:21:13;5.97;;;4.30;;
8281;SDS011;25606;42.686;23.136;2022-07-01T01:23:41;4.27;;;3.67;;
8281;SDS011;25606;42.686;23.136;2022-07-01T01:26:15;4.50;;;4.10;;
8281;SDS011;25606;42.686;23.136;2022-07-01T01:28:43;6.97;;;3.80;;
8281;SDS011;25606;42.686;23.136;2022-07-01T01:31:10;4.50;;;4.10;;
8281;SDS011;25606;42.686;23.136;2022-07-01T01:33:37;4.30;;;3.90;;
8281;SDS011;25606;42.686;23.136;2022-07-01T01:36:05;5.30;;;4.07;;
8281;SDS011;25606;42.686;23.136;2022-07-01T01:38:35;5.23;;;4.00;;
8281;SDS011;25606;42.686;23.136;2022-07-01T01:41:02;4.90;;;3.83;;
8281;SDS011;25606;42.686;23.136;2022-07-01T01:43:29;6.07;;;4.20;;
8281;SDS011;25606;42.686;23.136;2022-07-01T01:45:59;5.73;;;3.93;;
8281;SDS011;25606;42.686;23.136;2022-07-01T01:48:27;4.37;;;3.40;;
8281;SDS011;25606;42.686;23.136;2022-07-01T01:50:54;4.00;;;3.60;;
8281;SDS011;25606;42.686;23.136;2022-07-01T01:53:21;4.17;;;3.70;;
8281;SDS011;25606;42.686;23.136;2022-07-01T01:55:50;4.23;;;3.83;;
8281;SDS011;25606;42.686;23.136;2022-07-01T01:58:18;4.13;;;3.80;;
8281;SDS011;25606;42.686;23.136;2022-07-01T02:00:45;3.90;;;3.50;;
8281;SDS011;25606;42.686;23.136;2022-07-01T02:03:12;5.57;;;3.70;;
8281;SDS011;25606;42.686;23.136;2022-07-01T02:05:40;3.90;;;3.53;;
8281;SDS011;25606;42.686;23.136;2022-07-01T02:08:07;6.40;;;4.07;;
8281;SDS011;25606;42.686;23.136;2022-07-01T02:10:34;4.33;;;3.93;;
8281;SDS011;25606;42.686;23.136;2022-07-01T02:13:03;4.73;;;3.90;;
8281;SDS011;25606;42.686;23.136;2022-07-01T02:15:30;4.37;;;3.83;;
8281;SDS011;25606;42.686;23.136;2022-07-01T02:17:57;6.03;;;3.40;;
8281;SDS011;25606;42.686;23.136;2022-07-01T02:20:25;4.57;;;3.60;;
8281;SDS011;25606;42.686;23.136;2022-07-01T02:22:52;4.20;;;3.60;;
8281;SDS011;25606;42.686;23.136;2022-07-01T02:25:20;4.87;;;4.00;;
8281;SDS011;25606;42.686;23.136;2022-07-01T02:27:47;4.27;;;3.87;;
8281;SDS011;25606;42.686;23.136;2022-07-01T02:30:15;6.90;;;3.60;;
8281;SDS011;25606;42.686;23.136;2022-07-01T02:32:43;7.37;;;3.83;;
8281;SDS011;25606;42.686;23.136;2022-07-01T02:35:10;6.20;;;3.87;;
8281;SDS011;25606;42.686;23.136;2022-07-01T02:37:39;5.80;;;3.60;;
8281;SDS011;25606;42.686;23.136;2022-07-01T02:40:06;6.03;;;4.10;;
8281;SDS011;25606;42.686;23.136;2022-07-01T02:42:34;4.53;;;4.13;;
8281;SDS011;25606;42.686;23.136;2022-07-01T02:45:02;4.30;;;3.90;;
8281;SDS011;25606;42.686;23.136;2022-07-01T02:47:31;4.93;;;4.43;;
8281;SDS011;25606;42.686;23.136;2022-07-01T02:49:59;6.83;;;4.13;;
8281;SDS011;25606;42.686;23.136;2022-07-01T02:52:26;4.60;;;4.20;;
8281;SDS011;25606;42.686;23.136;2022-07-01T02:54:54;4.40;;;3.97;;
8281;SDS011;25606;42.686;23.136;2022-07-01T02:57:21;4.60;;;4.13;;
8281;SDS011;25606;42.686;23.136;2022-07-01T02:59:48;6.50;;;5.00;;
8281;SDS011;25606;42.686;23.136;2022-07-01T03:02:17;4.57;;;4.23;;
8281;SDS011;25606;42.686;23.136;2022-07-01T03:04:46;4.40;;;4.00;;
8281;SDS011;25606;42.686;23.136;2022-07-01T03:07:13;4.90;;;4.50;;
8281;SDS011;25606;42.686;23.136;2022-07-01T03:09:40;4.23;;;3.83;;
8281;SDS011;25606;42.686;23.136;2022-07-01T03:12:08;4.97;;;4.47;;
8281;SDS011;25606;42.686;23.136;2022-07-01T03:14:52;10.03;;;4.93;;
8281;SDS011;25606;42.686;23.136;2022-07-01T03:17:20;6.90;;;4.23;;
8281;SDS011;25606;42.686;23.136;2022-07-01T03:19:49;6.20;;;4.47;;
8281;SDS011;25606;42.686;23.136;2022-07-01T03:22:16;5.33;;;4.80;;
8281;SDS011;25606;42.686;23.136;2022-07-01T03:24:44;4.77;;;4.27;;
8281;SDS011;25606;42.686;23.136;2022-07-01T03:27:11;5.50;;;4.83;;
8281;SDS011;25606;42.686;23.136;2022-07-01T03:29:38;5.77;;;4.50;;
8281;SDS011;25606;42.686;23.136;2022-07-01T03:32:06;5.00;;;4.50;;
8281;SDS011;25606;42.686;23.136;2022-07-01T03:34:34;4.70;;;4.30;;
8281;SDS011;25606;42.686;23.136;2022-07-01T03:37:03;4.97;;;4.57;;
8281;SDS011;25606;42.686;23.136;2022-07-01T03:39:30;5.03;;;4.63;;
8281;SDS011;25606;42.686;23.136;2022-07-01T03:41:57;5.17;;;4.40;;
8281;SDS011;25606;42.686;23.136;2022-07-01T03:44:25;4.60;;;4.17;;
8281;SDS011;25606;42.686;23.136;2022-07-01T03:46:52;4.47;;;4.07;;
8281;SDS011;25606;42.686;23.136;2022-07-01T03:49:19;5.17;;;4.07;;
8281;SDS011;25606;42.686;23.136;2022-07-01T03:51:46;5.13;;;4.60;;
8281;SDS011;25606;42.686;23.136;2022-07-01T03:54:15;5.53;;;4.60;;
8281;SDS011;25606;42.686;23.136;2022-07-01T03:56:58;4.87;;;4.47;;
8281;SDS011;25606;42.686;23.136;2022-07-01T03:59:25;5.37;;;4.77;;
8281;SDS011;25606;42.686;23.136;2022-07-01T04:01:52;5.17;;;4.77;;
8281;SDS011;25606;42.686;23.136;2022-07-01T04:04:19;6.53;;;4.90;;
8281;SDS011;25606;42.686;23.136;2022-07-01T04:06:47;5.23;;;4.27;;
8281;SDS011;25606;42.686;23.136;2022-07-01T04:09:16;5.57;;;4.43;;
8281;SDS011;25606;42.686;23.136;2022-07-01T04:11:43;4.17;;;3.77;;
8281;SDS011;25606;42.686;23.136;2022-07-01T04:14:11;4.67;;;4.23;;
8281;SDS011;25606;42.686;23.136;2022-07-01T04:16:38;5.67;;;4.67;;
8281;SDS011;25606;42.686;23.136;2022-07-01T04:19:06;4.63;;;4.23;;
8281;SDS011;25606;42.686;23.136;2022-07-01T04:21:34;5.17;;;4.60;;
8281;SDS011;25606;42.686;23.136;2022-07-01T04:24:20;5.17;;;4.47;;
8281;SDS011;25606;42.686;23.136;2022-07-01T04:26:49;4.97;;;4.47;;
8281;SDS011;25606;42.686;23.136;2022-07-01T04:29:16;5.77;;;4.73;;
8281;SDS011;25606;42.686;23.136;2022-07-01T04:31:44;4.83;;;4.07;;
8281;SDS011;25606;42.686;23.136;2022-07-01T04:34:11;5.00;;;4.20;;
8281;SDS011;25606;42.686;23.136;2022-07-01T04:36:38;7.07;;;4.43;;
8281;SDS011;25606;42.686;23.136;2022-07-01T04:39:06;5.53;;;4.20;;
8281;SDS011;25606;42.686;23.136;2022-07-01T04:41:34;5.70;;;4.40;;
8281;SDS011;25606;42.686;23.136;2022-07-01T04:44:19;7.97;;;4.80;;
8281;SDS011;25606;42.686;23.136;2022-07-01T04:46:46;5.70;;;4.40;;
8281;SDS011;25606;42.686;23.136;2022-07-01T04:49:14;5.57;;;4.10;;
8281;SDS011;25606;42.686;23.136;2022-07-01T04:51:41;4.80;;;4.40;;
8281;SDS011;25606;42.686;23.136;2022-07-01T04:54:08;7.77;;;3.93;;
8281;SDS011;25606;42.686;23.136;2022-07-01T04:56:37;5.90;;;4.27;;
8281;SDS011;25606;42.686;23.136;2022-07-01T04:59:04;4.07;;;3.77;;
8281;SDS011;25606;42.686;23.136;2022-07-01T05:01:32;6.73;;;3.97;;
8281;SDS011;25606;42.686;23.136;2022-07-01T05:03:59;5.60;;;4.53;;
8281;SDS011;25606;42.686;23.136;2022-07-01T05:06:26;7.33;;;4.93;;
8281;SDS011;25606;42.686;23.136;2022-07-01T05:08:54;4.60;;;4.20;;
8281;SDS011;25606;42.686;23.136;2022-07-01T05:11:21;4.50;;;4.10;;
8281;SDS011;25606;42.686;23.136;2022-07-01T05:13:50;4.90;;;4.50;;
8281;SDS011;25606;42.686;23.136;2022-07-01T05:16:17;4.33;;;3.93;;
8281;SDS011;25606;42.686;23.136;2022-07-01T05:18:44;4.43;;;4.03;;
8281;SDS011;25606;42.686;23.136;2022-07-01T05:21:29;6.83;;;4.13;;
8281;SDS011;25606;42.686;23.136;2022-07-01T05:24:14;36.77;;;6.40;;
8281;SDS011;25606;42.686;23.136;2022-07-01T05:26:41;6.83;;;4.10;;
8281;SDS011;25606;42.686;23.136;2022-07-01T05:29:10;4.73;;;4.23;;
8281;SDS011;25606;42.686;23.136;2022-07-01T05:31:37;4.93;;;3.97;;
8281;SDS011;25606;42.686;23.136;2022-07-01T05:34:04;6.53;;;4.17;;
8281;SDS011;25606;42.686;23.136;2022-07-01T05:36:32;5.50;;;4.53;;
8281;SDS011;25606;42.686;23.136;2022-07-01T05:38:59;4.27;;;3.97;;
8281;SDS011;25606;42.686;23.136;2022-07-01T05:41:27;5.03;;;4.63;;
8281;SDS011;25606;42.686;23.136;2022-07-01T05:43:54;5.23;;;4.23;;
8281;SDS011;25606;42.686;23.136;2022-07-01T05:46:23;4.90;;;4.43;;
8281;SDS011;25606;42.686;23.136;2022-07-01T05:48:50;6.67;;;4.07;;
8281;SDS011;25606;42.686;23.136;2022-07-01T05:51:17;4.73;;;4.30;;
8281;SDS011;25606;42.686;23.136;2022-07-01T05:53:44;6.80;;;4.30;;
8281;SDS011;25606;42.686;23.136;2022-07-01T05:56:12;5.87;;;4.57;;
8281;SDS011;25606;42.686;23.136;2022-07-01T05:58:40;5.33;;;4.37;;
8281;SDS011;25606;42.686;23.136;2022-07-01T06:01:07;5.20;;;4.73;;
8281;SDS011;25606;42.686;23.136;2022-07-01T06:03:36;5.30;;;4.73;;
8281;SDS011;25606;42.686;23.136;2022-07-01T06:06:03;5.37;;;4.53;;
8281;SDS011;25606;42.686;23.136;2022-07-01T06:08:31;5.53;;;4.23;;
8281;SDS011;25606;42.686;23.136;2022-07-01T06:10:59;5.00;;;4.40;;
8281;SDS011;25606;42.686;23.136;2022-07-01T06:13:26;5.40;;;4.37;;
8281;SDS011;25606;42.686;23.136;2022-07-01T06:15:54;6.57;;;4.67;;
8281;SDS011;25606;42.686;23.136;2022-07-01T06:18:23;5.97;;;4.63;;
8281;SDS011;25606;42.686;23.136;2022-07-01T06:20:52;5.28;;;4.78;;
8281;SDS011;25606;42.686;23.136;2022-07-01T06:23:19;5.28;;;4.80;;
8281;SDS011;25606;42.686;23.136;2022-07-01T06:25:47;5.70;;;4.82;;
8281;SDS011;25606;42.686;23.136;2022-07-01T06:28:15;6.10;;;5.32;;
8281;SDS011;25606;42.686;23.136;2022-07-01T06:30:42;7.78;;;5.35;;
8281;SDS011;25606;42.686;23.136;2022-07-01T06:33:10;7.05;;;4.95;;
8281;SDS011;25606;42.686;23.136;2022-07-01T06:35:38;6.43;;;5.35;;
8281;SDS011;25606;42.686;23.136;2022-07-01T06:38:06;6.82;;;5.63;;
8281;SDS011;25606;42.686;23.136;2022-07-01T06:40:34;13.52;;;8.50;;
8281;SDS011;25606;42.686;23.136;2022-07-01T06:43:01;6.53;;;5.43;;
8281;SDS011;25606;42.686;23.136;2022-07-01T06:45:28;8.38;;;6.57;;
8281;SDS011;25606;42.686;23.136;2022-07-01T06:47:55;8.07;;;6.90;;
8281;SDS011;25606;42.686;23.136;2022-07-01T06:50:23;8.18;;;6.75;;
8281;SDS011;25606;42.686;23.136;2022-07-01T06:52:50;12.88;;;10.00;;
8281;SDS011;25606;42.686;23.136;2022-07-01T06:55:19;8.55;;;6.78;;
8281;SDS011;25606;42.686;23.136;2022-07-01T06:57:46;12.60;;;8.63;;
8281;SDS011;25606;42.686;23.136;2022-07-01T07:00:13;11.18;;;7.30;;
8281;SDS011;25606;42.686;23.136;2022-07-01T07:02:40;16.73;;;10.93;;
8281;SDS011;25606;42.686;23.136;2022-07-01T07:05:08;14.38;;;8.63;;
8281;SDS011;25606;42.686;23.136;2022-07-01T07:07:35;23.08;;;15.77;;
8281;SDS011;25606;42.686;23.136;2022-07-01T07:10:03;15.15;;;10.00;;
8281;SDS011;25606;42.686;23.136;2022-07-01T07:12:32;20.40;;;14.23;;
8281;SDS011;25606;42.686;23.136;2022-07-01T07:14:59;25.30;;;21.20;;
8281;SDS011;25606;42.686;23.136;2022-07-01T07:17:26;61.45;;;56.65;;
8281;SDS011;25606;42.686;23.136;2022-07-01T07:19:54;51.92;;;47.38;;
8281;SDS011;25606;42.686;23.136;2022-07-01T07:22:21;84.40;;;76.85;;
8281;SDS011;25606;42.686;23.136;2022-07-01T07:24:48;116.88;;;107.13;;
8281;SDS011;25606;42.686;23.136;2022-07-01T07:27:16;130.40;;;119.32;;
8281;SDS011;25606;42.686;23.136;2022-07-01T07:29:44;130.38;;;119.55;;
8281;SDS011;25606;42.686;23.136;2022-07-01T07:32:12;96.70;;;88.30;;
8281;SDS011;25606;42.686;23.136;2022-07-01T07:34:39;98.50;;;90.90;;
8281;SDS011;25606;42.686;23.136;2022-07-01T07:37:06;101.85;;;94.40;;
8281;SDS011;25606;42.686;23.136;2022-07-01T07:39:33;71.95;;;66.28;;
8281;SDS011;25606;42.686;23.136;2022-07-01T07:42:01;52.20;;;47.67;;
8281;SDS011;25606;42.686;23.136;2022-07-01T07:44:28;57.83;;;52.88;;
8281;SDS011;25606;42.686;23.136;2022-07-01T07:46:57;72.32;;;66.20;;
8281;SDS011;25606;42.686;23.136;2022-07-01T07:49:24;26.27;;;21.00;;
8281;SDS011;25606;42.686;23.136;2022-07-01T07:51:51;58.25;;;53.13;;
8281;SDS011;25606;42.686;23.136;2022-07-01T07:54:19;92.25;;;84.13;;
8281;SDS011;25606;42.686;23.136;2022-07-01T07:56:46;97.55;;;88.63;;
8281;SDS011;25606;42.686;23.136;2022-07-01T07:59:13;235.63;;;126.63;;
8281;SDS011;25606;42.686;23.136;2022-07-01T08:01:41;175.05;;;126.32;;
8281;SDS011;25606;42.686;23.136;2022-07-01T08:04:09;152.55;;;140.75;;
8281;SDS011;25606;42.686;23.136;2022-07-01T08:06:36;200.27;;;185.63;;
8281;SDS011;25606;42.686;23.136;2022-07-01T08:09:04;230.75;;;212.98;;
8281;SDS011;25606;42.686;23.136;2022-07-01T08:11:31;250.43;;;230.27;;
8281;SDS011;25606;42.686;23.136;2022-07-01T08:13:58;267.52;;;246.15;;
8281;SDS011;25606;42.686;23.136;2022-07-01T08:16:25;295.38;;;272.52;;
8281;SDS011;25606;42.686;23.136;2022-07-01T08:18:53;294.10;;;271.73;;
8281;SDS011;25606;42.686;23.136;2022-07-01T08:21:22;281.38;;;260.30;;
8281;SDS011;25606;42.686;23.136;2022-07-01T08:23:49;306.30;;;283.77;;
8281;SDS011;25606;42.686;23.136;2022-07-01T08:26:16;302.58;;;279.60;;
8281;SDS011;25606;42.686;23.136;2022-07-01T08:28:43;240.65;;;223.15;;
8281;SDS011;25606;42.686;23.136;2022-07-01T08:31:11;201.50;;;186.35;;
8281;SDS011;25606;42.686;23.136;2022-07-01T08:33:38;210.20;;;195.05;;
8281;SDS011;25606;42.686;23.136;2022-07-01T08:36:06;207.98;;;192.18;;
8281;SDS011;25606;42.686;23.136;2022-07-01T08:38:35;238.13;;;218.95;;
8281;SDS011;25606;42.686;23.136;2022-07-01T08:41:03;247.40;;;228.73;;
8281;SDS011;25606;42.686;23.136;2022-07-01T08:43:30;242.73;;;224.52;;
8281;SDS011;25606;42.686;23.136;2022-07-01T08:45:58;165.85;;;153.98;;
8281;SDS011;25606;42.686;23.136;2022-07-01T08:48:26;192.50;;;178.68;;
8281;SDS011;25606;42.686;23.136;2022-07-01T08:50:53;226.07;;;209.10;;
8281;SDS011;25606;42.686;23.136;2022-07-01T08:53:21;263.35;;;244.52;;
8281;SDS011;25606;42.686;23.136;2022-07-01T08:55:49;273.25;;;253.70;;
8281;SDS011;25606;42.686;23.136;2022-07-01T08:58:34;283.85;;;263.42;;
8281;SDS011;25606;42.686;23.136;2022-07-01T09:01:12;297.45;;;276.20;;
8281;SDS011;25606;42.686;23.136;2022-07-01T09:03:40;319.85;;;297.65;;
8281;SDS011;25606;42.686;23.136;2022-07-01T09:06:11;329.13;;;305.98;;
8281;SDS011;25606;42.686;23.136;2022-07-01T09:08:38;326.40;;;303.00;;
8281;SDS011;25606;42.686;23.136;2022-07-01T09:11:13;287.80;;;268.05;;
8281;SDS011;25606;42.686;23.136;2022-07-01T09:13:41;185.52;;;172.38;;
8281;SDS011;25606;42.686;23.136;2022-07-01T09:16:12;58.55;;;54.25;;
8281;SDS011;25606;42.686;23.136;2022-07-01T09:18:39;71.95;;;66.00;;
8281;SDS011;25606;42.686;23.136;2022-07-01T09:21:07;48.75;;;44.08;;
8281;SDS011;25606;42.686;23.136;2022-07-01T09:23:35;82.78;;;76.57;;
8281;SDS011;25606;42.686;23.136;2022-07-01T09:26:02;123.70;;;114.38;;
8281;SDS011;25606;42.686;23.136;2022-07-01T09:28:30;97.78;;;90.45;;
8281;SDS011;25606;42.686;23.136;2022-07-01T09:30:58;147.27;;;136.10;;
8281;SDS011;25606;42.686;23.136;2022-07-01T09:33:26;137.48;;;126.82;;
8281;SDS011;25606;42.686;23.136;2022-07-01T09:35:53;166.35;;;153.48;;
8281;SDS011;25606;42.686;23.136;2022-07-01T09:38:21;144.20;;;132.40;;
8281;SDS011;25606;42.686;23.136;2022-07-01T09:40:52;154.15;;;141.93;;
8281;SDS011;25606;42.686;23.136;2022-07-01T09:43:20;181.48;;;167.95;;
8281;SDS011;25606;42.686;23.136;2022-07-01T09:45:53;184.70;;;170.90;;
8281;SDS011;25606;42.686;23.136;2022-07-01T09:48:21;171.10;;;158.50;;
8281;SDS011;25606;42.686;23.136;2022-07-01T09:50:48;194.57;;;179.45;;
8281;SDS011;25606;42.686;23.136;2022-07-01T09:53:15;160.70;;;148.80;;
8281;SDS011;25606;42.686;23.136;2022-07-01T09:55:43;164.05;;;151.73;;
8281;SDS011;25606;42.686;23.136;2022-07-01T09:58:10;189.95;;;176.00;;
8281;SDS011;25606;42.686;23.136;2022-07-01T10:00:37;193.10;;;178.65;;
8281;SDS011;25606;42.686;23.136;2022-07-01T10:03:06;205.02;;;190.50;;
8281;SDS011;25606;42.686;23.136;2022-07-01T10:05:37;269.27;;;250.07;;
8281;SDS011;25606;42.686;23.136;2022-07-01T10:08:10;194.88;;;180.80;;
8281;SDS011;25606;42.686;23.136;2022-07-01T10:10:43;240.43;;;223.10;;
8281;SDS011;25606;42.686;23.136;2022-07-01T10:13:12;247.82;;;230.40;;
8281;SDS011;25606;42.686;23.136;2022-07-01T10:15:41;217.25;;;201.57;;
8281;SDS011;25606;42.686;23.136;2022-07-01T10:18:19;270.15;;;250.82;;
8281;SDS011;25606;42.686;23.136;2022-07-01T10:20:48;158.65;;;146.95;;
8281;SDS011;25606;42.686;23.136;2022-07-01T10:23:15;107.28;;;99.45;;
8281;SDS011;25606;42.686;23.136;2022-07-01T10:25:43;147.40;;;136.55;;
8281;SDS011;25606;42.686;23.136;2022-07-01T10:28:15;178.80;;;165.95;;
8281;SDS011;25606;42.686;23.136;2022-07-01T10:30:54;130.90;;;121.45;;
8281;SDS011;25606;42.686;23.136;2022-07-01T10:33:31;76.63;;;71.13;;
8281;SDS011;25606;42.686;23.136;2022-07-01T10:36:05;74.32;;;68.65;;
8281;SDS011;25606;42.686;23.136;2022-07-01T10:38:33;107.60;;;99.05;;
8281;SDS011;25606;42.686;23.136;2022-07-01T10:41:00;117.15;;;107.93;;
8281;SDS011;25606;42.686;23.136;2022-07-01T10:43:36;159.73;;;147.20;;
8281;SDS011;25606;42.686;23.136;2022-07-01T10:46:07;160.40;;;148.23;;
8281;SDS011;25606;42.686;23.136;2022-07-01T10:48:35;126.20;;;116.15;;
8281;SDS011;25606;42.686;23.136;2022-07-01T10:51:03;48.60;;;44.88;;
8281;SDS011;25606;42.686;23.136;2022-07-01T10:53:41;23.92;;;18.30;;
8281;SDS011;25606;42.686;23.136;2022-07-01T10:56:15;17.25;;;9.20;;
8281;SDS011;25606;42.686;23.136;2022-07-01T10:58:42;23.50;;;11.55;;
8281;SDS011;25606;42.686;23.136;2022-07-01T11:01:09;15.70;;;8.90;;
8281;SDS011;25606;42.686;23.136;2022-07-01T11:03:38;16.05;;;7.82;;
8281;SDS011;25606;42.686;23.136;2022-07-01T11:06:05;14.75;;;7.05;;
8281;SDS011;25606;42.686;23.136;2022-07-01T11:08:33;18.33;;;11.73;;
8281;SDS011;25606;42.686;23.136;2022-07-01T11:11:01;15.60;;;10.57;;
8281;SDS011;25606;42.686;23.136;2022-07-01T11:13:30;14.02;;;8.63;;
8281;SDS011;25606;42.686;23.136;2022-07-01T11:15:57;25.10;;;19.80;;
8281;SDS011;25606;42.686;23.136;2022-07-01T11:18:26;37.70;;;34.03;;
8281;SDS011;25606;42.686;23.136;2022-07-01T11:21:03;46.90;;;43.28;;
8281;SDS011;25606;42.686;23.136;2022-07-01T11:23:31;36.45;;;33.25;;
8281;SDS011;25606;42.686;23.136;2022-07-01T11:25:58;62.38;;;57.00;;
8281;SDS011;25606;42.686;23.136;2022-07-01T11:28:25;67.82;;;62.53;;
8281;SDS011;25606;42.686;23.136;2022-07-01T11:30:57;104.25;;;95.80;;
8281;SDS011;25606;42.686;23.136;2022-07-01T11:33:25;150.70;;;137.32;;
8281;SDS011;25606;42.686;23.136;2022-07-01T11:35:52;126.22;;;115.82;;
8281;SDS011;25606;42.686;23.136;2022-07-01T11:38:44;124.32;;;114.25;;
8281;SDS011;25606;42.686;23.136;2022-07-01T11:41:29;104.60;;;96.13;;
8281;SDS011;25606;42.686;23.136;2022-07-01T11:43:56;93.32;;;86.05;;
8281;SDS011;25606;42.686;23.136;2022-07-01T11:46:29;131.77;;;121.47;;
8281;SDS011;25606;42.686;23.136;2022-07-01T11:48:57;124.53;;;114.80;;
8281;SDS011;25606;42.686;23.136;2022-07-01T11:51:24;154.52;;;142.05;;
8281;SDS011;25606;42.686;23.136;2022-07-01T11:53:54;173.43;;;159.65;;
8281;SDS011;25606;42.686;23.136;2022-07-01T11:56:32;189.85;;;175.15;;
8281;SDS011;25606;42.686;23.136;2022-07-01T11:59:01;163.95;;;151.63;;
8281;SDS011;25606;42.686;23.136;2022-07-01T12:01:29;128.85;;;118.97;;
8281;SDS011;25606;42.686;23.136;2022-07-01T12:03:57;96.18;;;89.25;;
8281;SDS011;25606;42.686;23.136;2022-07-01T12:06:25;118.60;;;110.10;;
8281;SDS011;25606;42.686;23.136;2022-07-01T12:08:54;80.72;;;74.50;;
8281;SDS011;25606;42.686;23.136;2022-07-01T12:11:22;128.95;;;119.03;;
8281;SDS011;25606;42.686;23.136;2022-07-01T12:13:50;169.93;;;156.73;;
8281;SDS011;25606;42.686;23.136;2022-07-01T12:16:17;174.60;;;161.43;;
8281;SDS011;25606;42.686;23.136;2022-07-01T12:18:51;200.30;;;184.85;;
8281;SDS011;25606;42.686;23.136;2022-07-01T12:21:19;172.30;;;159.70;;
8281;SDS011;25606;42.686;23.136;2022-07-01T12:24:04;174.00;;;160.52;;
8281;SDS011;25606;42.686;23.136;2022-07-01T12:26:31;178.63;;;165.20;;
8281;SDS011;25606;42.686;23.136;2022-07-01T12:28:59;203.10;;;187.27;;
8281;SDS011;25606;42.686;23.136;2022-07-01T12:31:26;246.43;;;227.48;;
8281;SDS011;25606;42.686;23.136;2022-07-01T12:33:54;220.10;;;203.65;;
8281;SDS011;25606;42.686;23.136;2022-07-01T12:36:21;220.07;;;203.77;;
8281;SDS011;25606;42.686;23.136;2022-07-01T12:38:59;204.23;;;188.65;;
8281;SDS011;25606;42.686;23.136;2022-07-01T12:41:28;213.25;;;197.43;;
8281;SDS011;25606;42.686;23.136;2022-07-01T12:43:56;236.07;;;218.05;;
8281;SDS011;25606;42.686;23.136;2022-07-01T12:46:26;265.70;;;245.77;;
8281;SDS011;25606;42.686;23.136;2022-07-01T12:48:54;240.90;;;223.00;;
8281;SDS011;25606;42.686;23.136;2022-07-01T12:51:27;243.93;;;225.27;;
8281;SDS011;25606;42.686;23.136;2022-07-01T12:53:55;242.20;;;224.23;;
8281;SDS011;25606;42.686;23.136;2022-07-01T12:56:23;259.02;;;239.35;;
8281;SDS011;25606;42.686;23.136;2022-07-01T12:58:51;222.43;;;205.55;;
8281;SDS011;25606;42.686;23.136;2022-07-01T13:01:19;207.68;;;192.25;;
8281;SDS011;25606;42.686;23.136;2022-07-01T13:03:47;232.60;;;214.95;;
8281;SDS011;25606;42.686;23.136;2022-07-01T13:06:14;217.38;;;201.07;;
8281;SDS011;25606;42.686;23.136;2022-07-01T13:08:41;204.98;;;189.65;;
8281;SDS011;25606;42.686;23.136;2022-07-01T13:11:08;238.05;;;220.40;;
8281;SDS011;25606;42.686;23.136;2022-07-01T13:13:36;224.35;;;206.88;;
8281;SDS011;25606;42.686;23.136;2022-07-01T13:16:05;175.23;;;162.10;;
8281;SDS011;25606;42.686;23.136;2022-07-01T13:18:32;176.70;;;163.40;;
8281;SDS011;25606;42.686;23.136;2022-07-01T13:21:00;182.93;;;168.95;;
8281;SDS011;25606;42.686;23.136;2022-07-01T13:23:28;206.48;;;190.70;;
8281;SDS011;25606;42.686;23.136;2022-07-01T13:25:56;174.27;;;161.02;;
8281;SDS011;25606;42.686;23.136;2022-07-01T13:28:23;176.65;;;162.82;;
8281;SDS011;25606;42.686;23.136;2022-07-01T13:30:50;172.70;;;159.07;;
8281;SDS011;25606;42.686;23.136;2022-07-01T13:33:19;158.65;;;146.32;;
8281;SDS011;25606;42.686;23.136;2022-07-01T13:35:46;167.80;;;155.50;;
8281;SDS011;25606;42.686;23.136;2022-07-01T13:38:13;137.23;;;126.88;;
8281;SDS011;25606;42.686;23.136;2022-07-01T13:40:40;168.77;;;155.70;;
8281;SDS011;25606;42.686;23.136;2022-07-01T13:43:07;136.93;;;126.65;;
8281;SDS011;25606;42.686;23.136;2022-07-01T13:45:35;163.45;;;150.98;;
8281;SDS011;25606;42.686;23.136;2022-07-01T13:48:02;152.02;;;140.88;;
8281;SDS011;25606;42.686;23.136;2022-07-01T13:50:31;144.73;;;133.70;;
8281;SDS011;25606;42.686;23.136;2022-07-01T13:52:58;123.82;;;114.47;;
8281;SDS011;25606;42.686;23.136;2022-07-01T13:55:25;80.40;;;74.00;;
8281;SDS011;25606;42.686;23.136;2022-07-01T13:57:52;93.47;;;86.20;;
8281;SDS011;25606;42.686;23.136;2022-07-01T14:00:20;98.97;;;91.57;;
8281;SDS011;25606;42.686;23.136;2022-07-01T14:02:47;95.85;;;88.32;;
8281;SDS011;25606;42.686;23.136;2022-07-01T14:05:14;65.20;;;60.25;;
8281;SDS011;25606;42.686;23.136;2022-07-01T14:07:43;17.98;;;11.95;;
8281;SDS011;25606;42.686;23.136;2022-07-01T14:10:10;15.57;;;8.02;;
8281;SDS011;25606;42.686;23.136;2022-07-01T14:12:37;12.65;;;6.60;;
8281;SDS011;25606;42.686;23.136;2022-07-01T14:15:05;13.15;;;6.95;;
8281;SDS011;25606;42.686;23.136;2022-07-01T14:17:32;11.88;;;6.15;;
8281;SDS011;25606;42.686;23.136;2022-07-01T14:20:00;13.55;;;6.70;;
8281;SDS011;25606;42.686;23.136;2022-07-01T14:22:27;13.82;;;7.85;;
8281;SDS011;25606;42.686;23.136;2022-07-01T14:24:56;18.13;;;12.75;;
8281;SDS011;25606;42.686;23.136;2022-07-01T14:27:23;18.70;;;13.75;;
8281;SDS011;25606;42.686;23.136;2022-07-01T14:29:50;15.13;;;7.40;;
8281;SDS011;25606;42.686;23.136;2022-07-01T14:32:18;15.32;;;9.60;;
8281;SDS011;25606;42.686;23.136;2022-07-01T14:34:49;32.65;;;27.67;;